sensor_id;sensor_type;location;lat;lon;timestamp;temperature;humidity
38428;DHT22;24211;49.980;19.776;2024-02-23T00:00:26;10.70;99.90
38428;DHT22;24211;49.980;19.776;2024-02-23T00:03:14;10.70;99.90
38428;DHT22;24211;49.980;19.776;2024-02-23T00:05:42;10.70;99.90
38428;DHT22;24211;49.980;19.776;2024-02-23T00:08:37;10.70;99.90
38428;DHT22;24211;49.980;19.776;2024-02-23T00:11:30;10.70;99.90
38428;DHT22;24211;49.980;19.776;2024-02-23T00:14:12;10.70;99.90
38428;DHT22;24211;49.980;19.776;2024-02-23T00:16:40;10.70;99.90
38428;DHT22;24211;49.980;19.776;2024-02-23T00:19:08;10.70;99.90
38428;DHT22;24211;49.980;19.776;2024-02-23T00:22:09;10.70;99.90
38428;DHT22;24211;49.980;19.776;2024-02-23T00:24:37;10.70;99.90
38428;DHT22;24211;49.980;19.776;2024-02-23T00:27:05;10.70;99.90
38428;DHT22;24211;49.980;19.776;2024-02-23T00:29:33;10.60;99.90
38428;DHT22;24211;49.980;19.776;2024-02-23T00:32:01;10.70;99.90
38428;DHT22;24211;49.980;19.776;2024-02-23T00:34:49;10.80;99.90
38428;DHT22;24211;49.980;19.776;2024-02-23T00:37:17;10.80;99.90
38428;DHT22;24211;49.980;19.776;2024-02-23T00:43:02;10.80;99.90
38428;DHT22;24211;49.980;19.776;2024-02-23T00:45:30;10.80;99.90
38428;DHT22;24211;49.980;19.776;2024-02-23T00:48:12;10.80;99.90
38428;DHT22;24211;49.980;19.776;2024-02-23T00:54:27;10.70;99.90
38428;DHT22;24211;49.980;19.776;2024-02-23T00:56:55;10.60;99.90
38428;DHT22;24211;49.980;19.776;2024-02-23T00:59:36;10.50;99.90
38428;DHT22;24211;49.980;19.776;2024-02-23T01:02:03;10.30;99.90
38428;DHT22;24211;49.980;19.776;2024-02-23T01:05:17;10.50;99.90
38428;DHT22;24211;49.980;19.776;2024-02-23T01:07:44;10.60;99.90
38428;DHT22;24211;49.980;19.776;2024-02-23T01:10:38;10.70;99.90
38428;DHT22;24211;49.980;19.776;2024-02-23T01:13:06;10.80;99.90
38428;DHT22;24211;49.980;19.776;2024-02-23T01:15:35;10.80;99.90
38428;DHT22;24211;49.980;19.776;2024-02-23T01:18:41;10.80;99.90
38428;DHT22;24211;49.980;19.776;2024-02-23T01:21:08;10.80;99.90
38428;DHT22;24211;49.980;19.776;2024-02-23T01:23:46;10.60;99.90
38428;DHT22;24211;49.980;19.776;2024-02-23T01:26:42;10.30;99.90
38428;DHT22;24211;49.980;19.776;2024-02-23T01:29:12;10.10;99.90
38428;DHT22;24211;49.980;19.776;2024-02-23T01:31:40;10.00;99.90
38428;DHT22;24211;49.980;19.776;2024-02-23T01:34:07;10.20;99.90
38428;DHT22;24211;49.980;19.776;2024-02-23T01:37:00;10.10;99.90
38428;DHT22;24211;49.980;19.776;2024-02-23T01:39:28;9.90;99.90
38428;DHT22;24211;49.980;19.776;2024-02-23T01:41:56;10.10;99.90
38428;DHT22;24211;49.980;19.776;2024-02-23T01:44:37;10.30;99.90
38428;DHT22;24211;49.980;19.776;2024-02-23T01:47:04;10.40;99.90
38428;DHT22;24211;49.980;19.776;2024-02-23T01:49:32;10.50;99.90
38428;DHT22;24211;49.980;19.776;2024-02-23T01:52:15;10.40;99.90
38428;DHT22;24211;49.980;19.776;2024-02-23T01:54:44;10.30;99.90
38428;DHT22;24211;49.980;19.776;2024-02-23T01:57:14;10.20;99.90
38428;DHT22;24211;49.980;19.776;2024-02-23T02:00:02;10.30;99.90
38428;DHT22;24211;49.980;19.776;2024-02-23T02:02:30;10.40;99.90
38428;DHT22;24211;49.980;19.776;2024-02-23T02:05:02;10.40;99.90
38428;DHT22;24211;49.980;19.776;2024-02-23T02:07:31;10.40;99.90
38428;DHT22;24211;49.980;19.776;2024-02-23T02:10:24;10.10;99.90
38428;DHT22;24211;49.980;19.776;2024-02-23T02:12:53;10.20;99.90
38428;DHT22;24211;49.980;19.776;2024-02-23T02:15:23;10.30;99.90
38428;DHT22;24211;49.980;19.776;2024-02-23T02:17:56;10.30;99.90
38428;DHT22;24211;49.980;19.776;2024-02-23T02:20:25;10.30;99.90
38428;DHT22;24211;49.980;19.776;2024-02-23T02:22:56;10.40;99.90
38428;DHT22;24211;49.980;19.776;2024-02-23T02:25:23;10.40;99.90
38428;DHT22;24211;49.980;19.776;2024-02-23T02:27:50;10.40;99.90
38428;DHT22;24211;49.980;19.776;2024-02-23T02:30:17;10.40;99.90
38428;DHT22;24211;49.980;19.776;2024-02-23T02:32:48;10.40;99.90
38428;DHT22;24211;49.980;19.776;2024-02-23T02:35:15;10.40;99.90
38428;DHT22;24211;49.980;19.776;2024-02-23T02:37:43;10.30;99.90
38428;DHT22;24211;49.980;19.776;2024-02-23T02:40:26;10.40;99.90
38428;DHT22;24211;49.980;19.776;2024-02-23T02:42:54;10.30;99.90
38428;DHT22;24211;49.980;19.776;2024-02-23T02:45:23;10.30;99.90
38428;DHT22;24211;49.980;19.776;2024-02-23T02:48:15;10.30;99.90
38428;DHT22;24211;49.980;19.776;2024-02-23T02:50:42;10.30;99.90
38428;DHT22;24211;49.980;19.776;2024-02-23T02:53:14;10.30;99.90
38428;DHT22;24211;49.980;19.776;2024-02-23T02:55:45;10.30;99.90
38428;DHT22;24211;49.980;19.776;2024-02-23T02:58:13;10.30;99.90
38428;DHT22;24211;49.980;19.776;2024-02-23T03:00:40;10.30;99.90
38428;DHT22;24211;49.980;19.776;2024-02-23T03:03:36;10.30;99.90
38428;DHT22;24211;49.980;19.776;2024-02-23T03:09:21;10.20;99.90
38428;DHT22;24211;49.980;19.776;2024-02-23T03:11:48;10.20;99.90
38428;DHT22;24211;49.980;19.776;2024-02-23T03:14:16;10.20;99.90
38428;DHT22;24211;49.980;19.776;2024-02-23T03:16:45;10.20;99.90
38428;DHT22;24211;49.980;19.776;2024-02-23T03:19:16;10.20;99.90
38428;DHT22;24211;49.980;19.776;2024-02-23T03:21:45;10.20;99.90
38428;DHT22;24211;49.980;19.776;2024-02-23T03:24:12;10.10;99.90
38428;DHT22;24211;49.980;19.776;2024-02-23T03:26:47;10.10;99.90
38428;DHT22;24211;49.980;19.776;2024-02-23T03:29:14;10.10;99.90
38428;DHT22;24211;49.980;19.776;2024-02-23T03:31:43;10.10;99.90
38428;DHT22;24211;49.980;19.776;2024-02-23T03:34:11;10.10;99.90
38428;DHT22;24211;49.980;19.776;2024-02-23T03:36:40;10.10;99.90
38428;DHT22;24211;49.980;19.776;2024-02-23T03:39:07;10.10;99.90
38428;DHT22;24211;49.980;19.776;2024-02-23T03:41:34;10.10;99.90
38428;DHT22;24211;49.980;19.776;2024-02-23T03:44:02;10.10;99.90
38428;DHT22;24211;49.980;19.776;2024-02-23T03:46:29;10.10;99.90
38428;DHT22;24211;49.980;19.776;2024-02-23T03:48:57;10.10;99.90
38428;DHT22;24211;49.980;19.776;2024-02-23T03:51:28;10.10;99.90
38428;DHT22;24211;49.980;19.776;2024-02-23T03:57:39;10.00;99.90
38428;DHT22;24211;49.980;19.776;2024-02-23T04:00:09;10.10;99.90
38428;DHT22;24211;49.980;19.776;2024-02-23T04:02:41;10.00;99.90
38428;DHT22;24211;49.980;19.776;2024-02-23T04:05:09;10.00;99.90
38428;DHT22;24211;49.980;19.776;2024-02-23T04:07:36;10.00;99.90
38428;DHT22;24211;49.980;19.776;2024-02-23T04:10:04;10.00;99.90
38428;DHT22;24211;49.980;19.776;2024-02-23T04:12:35;10.00;99.90
38428;DHT22;24211;49.980;19.776;2024-02-23T04:15:27;10.00;99.90
38428;DHT22;24211;49.980;19.776;2024-02-23T04:17:54;9.90;99.90
38428;DHT22;24211;49.980;19.776;2024-02-23T04:21:01;9.90;99.90
38428;DHT22;24211;49.980;19.776;2024-02-23T04:23:29;9.90;99.90
38428;DHT22;24211;49.980;19.776;2024-02-23T04:26:34;9.90;99.90
38428;DHT22;24211;49.980;19.776;2024-02-23T04:29:02;9.90;99.90
38428;DHT22;24211;49.980;19.776;2024-02-23T04:31:37;9.90;99.90
38428;DHT22;24211;49.980;19.776;2024-02-23T04:34:05;9.90;99.90
38428;DHT22;24211;49.980;19.776;2024-02-23T04:36:32;9.90;99.90
38428;DHT22;24211;49.980;19.776;2024-02-23T04:38:59;9.90;99.90
38428;DHT22;24211;49.980;19.776;2024-02-23T04:41:27;9.90;99.90
38428;DHT22;24211;49.980;19.776;2024-02-23T04:43:54;9.90;99.90
38428;DHT22;24211;49.980;19.776;2024-02-23T04:46:32;9.90;99.90
38428;DHT22;24211;49.980;19.776;2024-02-23T04:49:26;9.90;99.90
38428;DHT22;24211;49.980;19.776;2024-02-23T04:51:53;9.90;99.90
38428;DHT22;24211;49.980;19.776;2024-02-23T04:54:55;9.90;99.90
38428;DHT22;24211;49.980;19.776;2024-02-23T04:57:23;9.90;99.90
38428;DHT22;24211;49.980;19.776;2024-02-23T05:00:15;9.90;99.90
38428;DHT22;24211;49.980;19.776;2024-02-23T05:06:10;9.80;99.90
38428;DHT22;24211;49.980;19.776;2024-02-23T05:08:37;9.80;99.90
38428;DHT22;24211;49.980;19.776;2024-02-23T05:11:14;9.80;99.90
38428;DHT22;24211;49.980;19.776;2024-02-23T05:14:01;9.80;99.90
38428;DHT22;24211;49.980;19.776;2024-02-23T05:16:29;9.80;99.90
38428;DHT22;24211;49.980;19.776;2024-02-23T05:18:58;9.80;99.90
38428;DHT22;24211;49.980;19.776;2024-02-23T05:21:25;9.80;99.90
38428;DHT22;24211;49.980;19.776;2024-02-23T05:23:55;9.80;99.90
38428;DHT22;24211;49.980;19.776;2024-02-23T05:26:22;9.70;99.90
38428;DHT22;24211;49.980;19.776;2024-02-23T05:29:16;9.80;99.90
38428;DHT22;24211;49.980;19.776;2024-02-23T05:31:51;9.70;99.90
38428;DHT22;24211;49.980;19.776;2024-02-23T05:35:44;9.70;99.90
38428;DHT22;24211;49.980;19.776;2024-02-23T05:38:23;9.70;99.90
38428;DHT22;24211;49.980;19.776;2024-02-23T05:40:51;9.70;99.90
38428;DHT22;24211;49.980;19.776;2024-02-23T05:43:18;9.70;99.90
38428;DHT22;24211;49.980;19.776;2024-02-23T05:47:15;9.70;99.90
38428;DHT22;24211;49.980;19.776;2024-02-23T05:49:43;9.70;99.90
38428;DHT22;24211;49.980;19.776;2024-02-23T05:52:11;9.70;99.90
38428;DHT22;24211;49.980;19.776;2024-02-23T05:54:40;9.70;99.90
38428;DHT22;24211;49.980;19.776;2024-02-23T05:57:08;9.70;99.90
38428;DHT22;24211;49.980;19.776;2024-02-23T05:59:35;9.70;99.90
38428;DHT22;24211;49.980;19.776;2024-02-23T06:02:03;9.70;99.90
38428;DHT22;24211;49.980;19.776;2024-02-23T06:04:40;9.70;99.90
38428;DHT22;24211;49.980;19.776;2024-02-23T06:07:09;9.70;99.90
38428;DHT22;24211;49.980;19.776;2024-02-23T06:09:37;9.70;99.90
38428;DHT22;24211;49.980;19.776;2024-02-23T06:12:10;9.70;99.90
38428;DHT22;24211;49.980;19.776;2024-02-23T06:14:45;9.70;99.90
38428;DHT22;24211;49.980;19.776;2024-02-23T06:17:12;9.70;99.90
38428;DHT22;24211;49.980;19.776;2024-02-23T06:19:40;9.70;99.90
38428;DHT22;24211;49.980;19.776;2024-02-23T06:22:08;9.60;99.90
38428;DHT22;24211;49.980;19.776;2024-02-23T06:24:37;9.60;99.90
38428;DHT22;24211;49.980;19.776;2024-02-23T06:27:04;9.60;99.90
38428;DHT22;24211;49.980;19.776;2024-02-23T06:29:35;9.60;99.90
38428;DHT22;24211;49.980;19.776;2024-02-23T06:32:03;9.70;99.90
38428;DHT22;24211;49.980;19.776;2024-02-23T06:34:36;9.70;99.90
38428;DHT22;24211;49.980;19.776;2024-02-23T06:37:03;9.70;99.90
38428;DHT22;24211;49.980;19.776;2024-02-23T06:39:38;9.70;99.90
38428;DHT22;24211;49.980;19.776;2024-02-23T06:42:30;9.70;99.90
38428;DHT22;24211;49.980;19.776;2024-02-23T06:44:57;9.70;99.90
38428;DHT22;24211;49.980;19.776;2024-02-23T06:47:24;9.70;99.90
38428;DHT22;24211;49.980;19.776;2024-02-23T06:49:52;9.70;99.90
38428;DHT22;24211;49.980;19.776;2024-02-23T06:52:19;9.70;99.90
38428;DHT22;24211;49.980;19.776;2024-02-23T06:55:00;9.70;99.90
38428;DHT22;24211;49.980;19.776;2024-02-23T06:57:28;9.80;99.90
38428;DHT22;24211;49.980;19.776;2024-02-23T06:59:56;9.80;99.90
38428;DHT22;24211;49.980;19.776;2024-02-23T07:02:32;9.80;99.90
38428;DHT22;24211;49.980;19.776;2024-02-23T07:05:18;9.80;99.90
38428;DHT22;24211;49.980;19.776;2024-02-23T07:07:45;9.80;99.90
38428;DHT22;24211;49.980;19.776;2024-02-23T07:10:40;9.80;99.90
38428;DHT22;24211;49.980;19.776;2024-02-23T07:13:27;9.90;99.90
38428;DHT22;24211;49.980;19.776;2024-02-23T07:16:04;9.90;99.90
38428;DHT22;24211;49.980;19.776;2024-02-23T07:18:34;9.90;99.90
38428;DHT22;24211;49.980;19.776;2024-02-23T07:21:01;9.90;99.90
38428;DHT22;24211;49.980;19.776;2024-02-23T07:23:29;9.90;99.90
38428;DHT22;24211;49.980;19.776;2024-02-23T07:25:56;9.90;99.90
38428;DHT22;24211;49.980;19.776;2024-02-23T07:28:42;9.90;99.90
38428;DHT22;24211;49.980;19.776;2024-02-23T07:31:10;9.90;99.90
38428;DHT22;24211;49.980;19.776;2024-02-23T07:33:38;9.90;99.90
38428;DHT22;24211;49.980;19.776;2024-02-23T07:36:14;9.90;99.90
38428;DHT22;24211;49.980;19.776;2024-02-23T07:39:13;9.90;99.90
38428;DHT22;24211;49.980;19.776;2024-02-23T07:41:42;10.00;99.90
38428;DHT22;24211;49.980;19.776;2024-02-23T07:44:09;10.00;99.90
38428;DHT22;24211;49.980;19.776;2024-02-23T07:46:37;9.90;99.90
38428;DHT22;24211;49.980;19.776;2024-02-23T07:49:04;10.00;99.90
38428;DHT22;24211;49.980;19.776;2024-02-23T07:51:51;10.00;99.90
38428;DHT22;24211;49.980;19.776;2024-02-23T07:54:27;10.00;99.90
38428;DHT22;24211;49.980;19.776;2024-02-23T07:56:55;10.00;99.90
38428;DHT22;24211;49.980;19.776;2024-02-23T07:59:25;10.00;99.90
38428;DHT22;24211;49.980;19.776;2024-02-23T08:01:52;10.00;99.90
38428;DHT22;24211;49.980;19.776;2024-02-23T08:04:19;10.00;99.90
38428;DHT22;24211;49.980;19.776;2024-02-23T08:06:47;10.00;99.90
38428;DHT22;24211;49.980;19.776;2024-02-23T08:09:33;10.00;99.90
38428;DHT22;24211;49.980;19.776;2024-02-23T08:12:02;10.00;99.90
38428;DHT22;24211;49.980;19.776;2024-02-23T08:14:30;10.00;99.90
38428;DHT22;24211;49.980;19.776;2024-02-23T08:16:58;10.00;99.90
38428;DHT22;24211;49.980;19.776;2024-02-23T08:19:25;10.10;99.90
38428;DHT22;24211;49.980;19.776;2024-02-23T08:21:53;10.00;99.90
38428;DHT22;24211;49.980;19.776;2024-02-23T08:24:20;10.10;99.90
38428;DHT22;24211;49.980;19.776;2024-02-23T08:26:47;10.10;99.90
38428;DHT22;24211;49.980;19.776;2024-02-23T08:32:33;10.10;99.90
38428;DHT22;24211;49.980;19.776;2024-02-23T08:35:00;10.10;99.90
38428;DHT22;24211;49.980;19.776;2024-02-23T08:37:28;10.10;99.90
38428;DHT22;24211;49.980;19.776;2024-02-23T08:39:55;10.10;99.90
38428;DHT22;24211;49.980;19.776;2024-02-23T08:42:23;10.10;99.90
38428;DHT22;24211;49.980;19.776;2024-02-23T08:45:33;10.10;99.90
38428;DHT22;24211;49.980;19.776;2024-02-23T08:51:19;10.20;99.90
38428;DHT22;24211;49.980;19.776;2024-02-23T08:53:46;10.20;99.90
38428;DHT22;24211;49.980;19.776;2024-02-23T08:56:14;10.10;99.90
38428;DHT22;24211;49.980;19.776;2024-02-23T08:59:09;10.20;99.90
38428;DHT22;24211;49.980;19.776;2024-02-23T09:02:02;10.20;99.90
38428;DHT22;24211;49.980;19.776;2024-02-23T09:04:38;10.20;99.90
38428;DHT22;24211;49.980;19.776;2024-02-23T09:07:05;10.20;99.90
38428;DHT22;24211;49.980;19.776;2024-02-23T09:10:01;10.30;99.90
38428;DHT22;24211;49.980;19.776;2024-02-23T09:12:43;10.30;99.90
38428;DHT22;24211;49.980;19.776;2024-02-23T09:15:11;10.30;99.90
38428;DHT22;24211;49.980;19.776;2024-02-23T09:17:40;10.30;99.90
38428;DHT22;24211;49.980;19.776;2024-02-23T09:20:10;10.30;99.90
38428;DHT22;24211;49.980;19.776;2024-02-23T09:22:38;10.30;99.90
38428;DHT22;24211;49.980;19.776;2024-02-23T09:25:07;10.40;99.90
38428;DHT22;24211;49.980;19.776;2024-02-23T09:27:38;10.40;99.90
38428;DHT22;24211;49.980;19.776;2024-02-23T09:33:58;10.40;99.90
38428;DHT22;24211;49.980;19.776;2024-02-23T09:36:26;10.50;99.90
38428;DHT22;24211;49.980;19.776;2024-02-23T09:38:53;10.50;99.90
38428;DHT22;24211;49.980;19.776;2024-02-23T09:41:22;10.50;99.90
38428;DHT22;24211;49.980;19.776;2024-02-23T09:43:55;10.60;99.90
38428;DHT22;24211;49.980;19.776;2024-02-23T09:46:26;10.60;99.90
38428;DHT22;24211;49.980;19.776;2024-02-23T09:48:55;10.60;99.90
38428;DHT22;24211;49.980;19.776;2024-02-23T09:51:27;10.60;99.90
38428;DHT22;24211;49.980;19.776;2024-02-23T09:53:56;10.60;99.90
38428;DHT22;24211;49.980;19.776;2024-02-23T09:56:49;10.70;99.90
38428;DHT22;24211;49.980;19.776;2024-02-23T09:59:25;10.70;99.90
38428;DHT22;24211;49.980;19.776;2024-02-23T10:02:11;10.70;99.90
38428;DHT22;24211;49.980;19.776;2024-02-23T10:04:43;10.70;99.90
38428;DHT22;24211;49.980;19.776;2024-02-23T10:07:15;10.80;99.90
38428;DHT22;24211;49.980;19.776;2024-02-23T10:13:09;10.80;99.90
38428;DHT22;24211;49.980;19.776;2024-02-23T10:15:37;10.80;99.90
38428;DHT22;24211;49.980;19.776;2024-02-23T10:18:04;10.90;99.90
38428;DHT22;24211;49.980;19.776;2024-02-23T10:21:14;10.90;99.90
38428;DHT22;24211;49.980;19.776;2024-02-23T10:23:52;10.90;99.90
38428;DHT22;24211;49.980;19.776;2024-02-23T10:26:34;10.90;99.90
38428;DHT22;24211;49.980;19.776;2024-02-23T10:29:02;11.00;99.90
38428;DHT22;24211;49.980;19.776;2024-02-23T10:31:35;11.00;99.90
38428;DHT22;24211;49.980;19.776;2024-02-23T10:37:34;11.10;99.90
38428;DHT22;24211;49.980;19.776;2024-02-23T10:40:03;11.20;99.90
38428;DHT22;24211;49.980;19.776;2024-02-23T10:42:37;11.20;99.90
38428;DHT22;24211;49.980;19.776;2024-02-23T10:45:26;11.30;99.90
38428;DHT22;24211;49.980;19.776;2024-02-23T10:48:27;11.30;99.90
38428;DHT22;24211;49.980;19.776;2024-02-23T10:51:17;11.40;99.90
38428;DHT22;24211;49.980;19.776;2024-02-23T10:54:02;11.40;99.90
38428;DHT22;24211;49.980;19.776;2024-02-23T10:56:55;11.40;99.90
38428;DHT22;24211;49.980;19.776;2024-02-23T10:59:48;11.50;99.90
38428;DHT22;24211;49.980;19.776;2024-02-23T11:02:54;11.60;99.90
38428;DHT22;24211;49.980;19.776;2024-02-23T11:05:23;11.60;99.90
38428;DHT22;24211;49.980;19.776;2024-02-23T11:08:17;11.70;99.90
38428;DHT22;24211;49.980;19.776;2024-02-23T11:11:07;11.80;99.90
38428;DHT22;24211;49.980;19.776;2024-02-23T11:13:46;11.80;99.90
38428;DHT22;24211;49.980;19.776;2024-02-23T11:16:22;11.90;99.90
38428;DHT22;24211;49.980;19.776;2024-02-23T11:19:07;11.90;99.90
38428;DHT22;24211;49.980;19.776;2024-02-23T11:25:07;11.90;99.90
38428;DHT22;24211;49.980;19.776;2024-02-23T11:27:43;12.00;99.90
38428;DHT22;24211;49.980;19.776;2024-02-23T11:30:11;12.00;99.90
38428;DHT22;24211;49.980;19.776;2024-02-23T11:32:44;12.00;99.90
38428;DHT22;24211;49.980;19.776;2024-02-23T11:35:27;12.10;99.90
38428;DHT22;24211;49.980;19.776;2024-02-23T11:37:56;12.10;99.90
38428;DHT22;24211;49.980;19.776;2024-02-23T11:40:56;12.10;99.90
38428;DHT22;24211;49.980;19.776;2024-02-23T11:43:23;12.20;99.90
38428;DHT22;24211;49.980;19.776;2024-02-23T11:45:51;12.30;99.90
38428;DHT22;24211;49.980;19.776;2024-02-23T11:48:19;12.30;99.90
38428;DHT22;24211;49.980;19.776;2024-02-23T11:51:01;12.30;99.90
38428;DHT22;24211;49.980;19.776;2024-02-23T11:53:56;12.40;99.90
38428;DHT22;24211;49.980;19.776;2024-02-23T11:56:31;12.50;99.90
38428;DHT22;24211;49.980;19.776;2024-02-23T11:58:59;12.50;99.90
38428;DHT22;24211;49.980;19.776;2024-02-23T12:01:52;12.50;99.90
38428;DHT22;24211;49.980;19.776;2024-02-23T12:04:20;12.50;99.90
38428;DHT22;24211;49.980;19.776;2024-02-23T12:06:48;12.60;99.90
38428;DHT22;24211;49.980;19.776;2024-02-23T12:09:21;12.70;99.90
38428;DHT22;24211;49.980;19.776;2024-02-23T12:12:03;12.70;99.90
38428;DHT22;24211;49.980;19.776;2024-02-23T12:14:44;12.80;99.90
38428;DHT22;24211;49.980;19.776;2024-02-23T12:17:19;12.80;99.90
38428;DHT22;24211;49.980;19.776;2024-02-23T12:19:47;12.80;99.90
38428;DHT22;24211;49.980;19.776;2024-02-23T12:22:24;12.80;99.90
38428;DHT22;24211;49.980;19.776;2024-02-23T12:24:52;12.90;99.90
38428;DHT22;24211;49.980;19.776;2024-02-23T12:28:09;12.90;99.90
38428;DHT22;24211;49.980;19.776;2024-02-23T12:30:36;12.90;99.90
38428;DHT22;24211;49.980;19.776;2024-02-23T12:33:06;12.90;99.90
38428;DHT22;24211;49.980;19.776;2024-02-23T12:39:57;12.90;99.90
38428;DHT22;24211;49.980;19.776;2024-02-23T12:42:24;12.80;99.90
38428;DHT22;24211;49.980;19.776;2024-02-23T12:44:53;12.90;99.90
38428;DHT22;24211;49.980;19.776;2024-02-23T12:47:20;12.80;99.90
38428;DHT22;24211;49.980;19.776;2024-02-23T12:49:47;12.90;99.90
38428;DHT22;24211;49.980;19.776;2024-02-23T12:52:40;12.90;99.90
38428;DHT22;24211;49.980;19.776;2024-02-23T12:55:37;12.80;99.90
38428;DHT22;24211;49.980;19.776;2024-02-23T12:58:05;12.80;99.90
38428;DHT22;24211;49.980;19.776;2024-02-23T13:00:37;12.80;99.90
38428;DHT22;24211;49.980;19.776;2024-02-23T13:03:04;12.80;99.90
38428;DHT22;24211;49.980;19.776;2024-02-23T13:05:36;12.80;99.90
38428;DHT22;24211;49.980;19.776;2024-02-23T13:08:05;12.80;99.90
38428;DHT22;24211;49.980;19.776;2024-02-23T13:10:32;12.80;99.90
38428;DHT22;24211;49.980;19.776;2024-02-23T13:13:01;12.80;99.90
38428;DHT22;24211;49.980;19.776;2024-02-23T13:15:38;12.80;99.90
38428;DHT22;24211;49.980;19.776;2024-02-23T13:18:06;12.80;99.90
38428;DHT22;24211;49.980;19.776;2024-02-23T13:20:33;12.80;99.90
38428;DHT22;24211;49.980;19.776;2024-02-23T13:23:11;12.80;99.90
38428;DHT22;24211;49.980;19.776;2024-02-23T13:26:07;12.80;99.90
38428;DHT22;24211;49.980;19.776;2024-02-23T13:28:38;12.70;99.90
38428;DHT22;24211;49.980;19.776;2024-02-23T13:31:39;12.80;99.90
38428;DHT22;24211;49.980;19.776;2024-02-23T13:34:07;12.70;99.90
38428;DHT22;24211;49.980;19.776;2024-02-23T13:37:04;12.80;99.90
38428;DHT22;24211;49.980;19.776;2024-02-23T13:39:59;12.70;99.90
38428;DHT22;24211;49.980;19.776;2024-02-23T13:42:37;12.70;99.90
38428;DHT22;24211;49.980;19.776;2024-02-23T13:45:08;12.60;99.90
38428;DHT22;24211;49.980;19.776;2024-02-23T13:47:37;12.60;99.90
38428;DHT22;24211;49.980;19.776;2024-02-23T13:50:23;12.70;99.90
38428;DHT22;24211;49.980;19.776;2024-02-23T13:52:51;12.60;99.90
38428;DHT22;24211;49.980;19.776;2024-02-23T13:55:39;12.60;99.90
38428;DHT22;24211;49.980;19.776;2024-02-23T13:58:30;12.60;99.90
38428;DHT22;24211;49.980;19.776;2024-02-23T14:01:00;12.60;99.90
38428;DHT22;24211;49.980;19.776;2024-02-23T14:03:40;12.60;99.90
38428;DHT22;24211;49.980;19.776;2024-02-23T14:06:10;12.60;99.90
38428;DHT22;24211;49.980;19.776;2024-02-23T14:08:37;12.60;99.90
38428;DHT22;24211;49.980;19.776;2024-02-23T14:11:19;12.60;99.90
38428;DHT22;24211;49.980;19.776;2024-02-23T14:13:47;12.60;99.90
38428;DHT22;24211;49.980;19.776;2024-02-23T14:16:21;12.50;99.90
38428;DHT22;24211;49.980;19.776;2024-02-23T14:18:53;12.50;99.90
38428;DHT22;24211;49.980;19.776;2024-02-23T14:21:35;12.50;99.90
38428;DHT22;24211;49.980;19.776;2024-02-23T14:24:06;12.50;99.90
38428;DHT22;24211;49.980;19.776;2024-02-23T14:26:46;12.50;99.90
38428;DHT22;24211;49.980;19.776;2024-02-23T14:29:49;12.50;99.90
38428;DHT22;24211;49.980;19.776;2024-02-23T14:32:17;12.40;99.90
38428;DHT22;24211;49.980;19.776;2024-02-23T14:34:45;12.40;99.90
38428;DHT22;24211;49.980;19.776;2024-02-23T14:37:46;12.40;99.90
38428;DHT22;24211;49.980;19.776;2024-02-23T14:40:45;12.40;99.90
38428;DHT22;24211;49.980;19.776;2024-02-23T14:43:13;12.50;99.90
38428;DHT22;24211;49.980;19.776;2024-02-23T14:45:40;12.40;99.90
38428;DHT22;24211;49.980;19.776;2024-02-23T14:48:08;12.40;99.90
38428;DHT22;24211;49.980;19.776;2024-02-23T14:50:41;12.40;99.90
38428;DHT22;24211;49.980;19.776;2024-02-23T14:53:12;12.40;99.90
38428;DHT22;24211;49.980;19.776;2024-02-23T14:55:41;12.40;99.90
38428;DHT22;24211;49.980;19.776;2024-02-23T14:58:09;12.40;99.90
38428;DHT22;24211;49.980;19.776;2024-02-23T15:00:41;12.40;99.90
38428;DHT22;24211;49.980;19.776;2024-02-23T15:03:08;12.40;99.90
38428;DHT22;24211;49.980;19.776;2024-02-23T15:05:36;12.40;99.90
38428;DHT22;24211;49.980;19.776;2024-02-23T15:08:04;12.40;99.90
38428;DHT22;24211;49.980;19.776;2024-02-23T15:10:32;12.40;99.90
38428;DHT22;24211;49.980;19.776;2024-02-23T15:12:59;12.30;99.90
38428;DHT22;24211;49.980;19.776;2024-02-23T15:15:35;12.40;99.90
38428;DHT22;24211;49.980;19.776;2024-02-23T15:18:27;12.30;99.90
38428;DHT22;24211;49.980;19.776;2024-02-23T15:20:54;12.30;99.90
38428;DHT22;24211;49.980;19.776;2024-02-23T15:23:23;12.30;99.90
38428;DHT22;24211;49.980;19.776;2024-02-23T15:26:00;12.30;99.90
38428;DHT22;24211;49.980;19.776;2024-02-23T15:28:40;12.30;99.90
38428;DHT22;24211;49.980;19.776;2024-02-23T15:31:21;12.30;99.90
38428;DHT22;24211;49.980;19.776;2024-02-23T15:34:00;12.20;99.90
38428;DHT22;24211;49.980;19.776;2024-02-23T15:36:30;12.20;99.90
38428;DHT22;24211;49.980;19.776;2024-02-23T15:39:04;12.20;99.90
38428;DHT22;24211;49.980;19.776;2024-02-23T15:41:33;12.20;99.90
38428;DHT22;24211;49.980;19.776;2024-02-23T15:44:02;12.20;99.90
38428;DHT22;24211;49.980;19.776;2024-02-23T15:46:31;12.10;99.90
38428;DHT22;24211;49.980;19.776;2024-02-23T15:48:59;12.10;99.90
38428;DHT22;24211;49.980;19.776;2024-02-23T15:51:47;12.10;99.90
38428;DHT22;24211;49.980;19.776;2024-02-23T15:54:39;12.10;99.90
38428;DHT22;24211;49.980;19.776;2024-02-23T15:57:16;12.10;99.90
38428;DHT22;24211;49.980;19.776;2024-02-23T15:59:45;12.00;99.90
38428;DHT22;24211;49.980;19.776;2024-02-23T16:02:39;12.00;99.90
38428;DHT22;24211;49.980;19.776;2024-02-23T16:05:08;12.00;99.90
38428;DHT22;24211;49.980;19.776;2024-02-23T16:07:35;12.00;99.90
38428;DHT22;24211;49.980;19.776;2024-02-23T16:10:03;11.90;99.90
38428;DHT22;24211;49.980;19.776;2024-02-23T16:12:32;11.90;99.90
38428;DHT22;24211;49.980;19.776;2024-02-23T16:15:00;11.90;99.90
38428;DHT22;24211;49.980;19.776;2024-02-23T16:17:28;11.80;99.90
38428;DHT22;24211;49.980;19.776;2024-02-23T16:20:00;11.80;99.90
38428;DHT22;24211;49.980;19.776;2024-02-23T16:22:27;11.80;99.90
38428;DHT22;24211;49.980;19.776;2024-02-23T16:24:54;11.80;99.90
38428;DHT22;24211;49.980;19.776;2024-02-23T16:27:21;11.80;99.90
38428;DHT22;24211;49.980;19.776;2024-02-23T16:29:49;11.70;99.90
38428;DHT22;24211;49.980;19.776;2024-02-23T16:32:18;11.70;99.90
38428;DHT22;24211;49.980;19.776;2024-02-23T16:34:45;11.70;99.90
38428;DHT22;24211;49.980;19.776;2024-02-23T16:37:12;11.60;99.90
38428;DHT22;24211;49.980;19.776;2024-02-23T16:39:40;11.60;99.90
38428;DHT22;24211;49.980;19.776;2024-02-23T16:42:09;11.50;99.90
38428;DHT22;24211;49.980;19.776;2024-02-23T16:44:41;11.50;99.90
38428;DHT22;24211;49.980;19.776;2024-02-23T16:47:13;11.50;99.90
38428;DHT22;24211;49.980;19.776;2024-02-23T16:49:40;11.50;99.90